sensor_id;sensor_type;location;lat;lon;timestamp;P1;durP1;ratioP1;P2;durP2;ratioP2
43861;SDS011;29510;52.140;5.034;2023-03-11T00:02:15;0.98;;;0.30;;
43861;SDS011;29510;52.140;5.034;2023-03-11T00:12:16;2.17;;;0.63;;
43861;SDS011;29510;52.140;5.034;2023-03-11T00:22:17;2.08;;;1.10;;
43861;SDS011;29510;52.140;5.034;2023-03-11T00:32:18;1.00;;;0.28;;
43861;SDS011;29510;52.140;5.034;2023-03-11T00:42:19;1.95;;;0.57;;
43861;SDS011;29510;52.140;5.034;2023-03-11T00:52:20;0.55;;;0.17;;
43861;SDS011;29510;52.140;5.034;2023-03-11T01:02:22;0.55;;;0.20;;
43861;SDS011;29510;52.140;5.034;2023-03-11T01:12:23;2.55;;;0.73;;
43861;SDS011;29510;52.140;5.034;2023-03-11T01:22:24;1.42;;;0.47;;
43861;SDS011;29510;52.140;5.034;2023-03-11T01:32:25;0.70;;;0.20;;
43861;SDS011;29510;52.140;5.034;2023-03-11T01:42:27;1.20;;;0.30;;
43861;SDS011;29510;52.140;5.034;2023-03-11T01:52:28;0.57;;;0.25;;
43861;SDS011;29510;52.140;5.034;2023-03-11T02:02:31;1.42;;;0.65;;
43861;SDS011;29510;52.140;5.034;2023-03-11T02:12:36;0.35;;;0.17;;
43861;SDS011;29510;52.140;5.034;2023-03-11T02:22:40;1.92;;;0.40;;
43861;SDS011;29510;52.140;5.034;2023-03-11T02:32:42;1.83;;;0.55;;
43861;SDS011;29510;52.140;5.034;2023-03-11T02:42:46;2.22;;;0.90;;
43861;SDS011;29510;52.140;5.034;2023-03-11T02:52:50;1.17;;;0.50;;
43861;SDS011;29510;52.140;5.034;2023-03-11T03:02:51;1.13;;;0.38;;
43861;SDS011;29510;52.140;5.034;2023-03-11T03:12:53;0.90;;;0.50;;
43861;SDS011;29510;52.140;5.034;2023-03-11T03:22:54;1.95;;;0.30;;
43861;SDS011;29510;52.140;5.034;2023-03-11T03:32:55;1.40;;;0.50;;
43861;SDS011;29510;52.140;5.034;2023-03-11T03:42:56;2.03;;;0.90;;
43861;SDS011;29510;52.140;5.034;2023-03-11T03:52:58;3.00;;;0.70;;
43861;SDS011;29510;52.140;5.034;2023-03-11T04:02:59;2.78;;;0.55;;
43861;SDS011;29510;52.140;5.034;2023-03-11T04:13:00;1.50;;;0.70;;
43861;SDS011;29510;52.140;5.034;2023-03-11T04:23:01;2.88;;;0.47;;
43861;SDS011;29510;52.140;5.034;2023-03-11T04:33:02;0.68;;;0.30;;
43861;SDS011;29510;52.140;5.034;2023-03-11T04:43:03;1.15;;;0.30;;
43861;SDS011;29510;52.140;5.034;2023-03-11T04:53:04;1.20;;;0.50;;
43861;SDS011;29510;52.140;5.034;2023-03-11T05:03:05;0.65;;;0.28;;
43861;SDS011;29510;52.140;5.034;2023-03-11T05:13:07;0.80;;;0.28;;
43861;SDS011;29510;52.140;5.034;2023-03-11T05:23:08;2.00;;;0.30;;
43861;SDS011;29510;52.140;5.034;2023-03-11T05:33:09;0.90;;;0.38;;
43861;SDS011;29510;52.140;5.034;2023-03-11T05:43:10;1.60;;;0.60;;
43861;SDS011;29510;52.140;5.034;2023-03-11T05:53:11;1.88;;;0.98;;
43861;SDS011;29510;52.140;5.034;2023-03-11T06:03:12;1.55;;;0.70;;
43861;SDS011;29510;52.140;5.034;2023-03-11T06:13:13;1.60;;;0.77;;
43861;SDS011;29510;52.140;5.034;2023-03-11T06:23:14;1.15;;;0.40;;
43861;SDS011;29510;52.140;5.034;2023-03-11T06:33:15;0.93;;;0.35;;
43861;SDS011;29510;52.140;5.034;2023-03-11T06:43:16;2.28;;;0.47;;
43861;SDS011;29510;52.140;5.034;2023-03-11T06:53:18;1.00;;;0.40;;
43861;SDS011;29510;52.140;5.034;2023-03-11T07:03:19;2.17;;;0.63;;
43861;SDS011;29510;52.140;5.034;2023-03-11T07:13:20;1.23;;;0.43;;
43861;SDS011;29510;52.140;5.034;2023-03-11T07:23:21;3.30;;;1.63;;
43861;SDS011;29510;52.140;5.034;2023-03-11T07:33:22;4.38;;;1.40;;
43861;SDS011;29510;52.140;5.034;2023-03-11T07:43:23;3.05;;;1.25;;
43861;SDS011;29510;52.140;5.034;2023-03-11T07:53:25;3.13;;;1.77;;
43861;SDS011;29510;52.140;5.034;2023-03-11T08:03:26;2.38;;;0.77;;
43861;SDS011;29510;52.140;5.034;2023-03-11T08:13:27;1.30;;;0.80;;
43861;SDS011;29510;52.140;5.034;2023-03-11T08:23:28;1.23;;;0.50;;
43861;SDS011;29510;52.140;5.034;2023-03-11T08:33:29;0.50;;;0.20;;
43861;SDS011;29510;52.140;5.034;2023-03-11T08:43:30;13.15;;;1.20;;
43861;SDS011;29510;52.140;5.034;2023-03-11T08:53:31;0.82;;;0.40;;
43861;SDS011;29510;52.140;5.034;2023-03-11T09:03:32;1.25;;;0.50;;
43861;SDS011;29510;52.140;5.034;2023-03-11T09:13:35;0.45;;;0.20;;
43861;SDS011;29510;52.140;5.034;2023-03-11T09:23:36;2.58;;;0.28;;
43861;SDS011;29510;52.140;5.034;2023-03-11T09:33:38;0.43;;;0.13;;
43861;SDS011;29510;52.140;5.034;2023-03-11T09:43:45;0.95;;;0.25;;
43861;SDS011;29510;52.140;5.034;2023-03-11T09:54:03;1.00;;;0.50;;
43861;SDS011;29510;52.140;5.034;2023-03-11T10:04:17;3.17;;;0.55;;
43861;SDS011;29510;52.140;5.034;2023-03-11T10:14:36;0.77;;;0.20;;
43861;SDS011;29510;52.140;5.034;2023-03-11T10:44:52;1.20;;;0.40;;
43861;SDS011;29510;52.140;5.034;2023-03-11T10:55:00;4.65;;;0.70;;
43861;SDS011;29510;52.140;5.034;2023-03-11T11:15:28;1.08;;;0.40;;
43861;SDS011;29510;52.140;5.034;2023-03-11T11:25:32;2.88;;;0.40;;
43861;SDS011;29510;52.140;5.034;2023-03-11T11:35:35;0.95;;;0.40;;
43861;SDS011;29510;52.140;5.034;2023-03-11T11:45:54;3.15;;;0.55;;
43861;SDS011;29510;52.140;5.034;2023-03-11T11:55:59;2.70;;;0.73;;
43861;SDS011;29510;52.140;5.034;2023-03-11T12:06:03;0.73;;;0.40;;
43861;SDS011;29510;52.140;5.034;2023-03-11T12:16:37;0.90;;;0.30;;
43861;SDS011;29510;52.140;5.034;2023-03-11T12:26:50;1.33;;;0.30;;
43861;SDS011;29510;52.140;5.034;2023-03-11T12:36:54;2.15;;;0.13;;
43861;SDS011;29510;52.140;5.034;2023-03-11T12:47:00;0.40;;;0.20;;
43861;SDS011;29510;52.140;5.034;2023-03-11T12:57:23;1.33;;;0.30;;
43861;SDS011;29510;52.140;5.034;2023-03-11T13:07:40;2.35;;;0.65;;
43861;SDS011;29510;52.140;5.034;2023-03-11T13:17:57;0.47;;;0.15;;
43861;SDS011;29510;52.140;5.034;2023-03-11T13:28:17;1.30;;;0.43;;
43861;SDS011;29510;52.140;5.034;2023-03-11T13:38:44;0.55;;;0.10;;
43861;SDS011;29510;52.140;5.034;2023-03-11T13:59:24;0.68;;;0.30;;
43861;SDS011;29510;52.140;5.034;2023-03-11T14:09:27;1.20;;;0.53;;
43861;SDS011;29510;52.140;5.034;2023-03-11T14:19:28;0.73;;;0.20;;
43861;SDS011;29510;52.140;5.034;2023-03-11T14:29:31;1.88;;;0.93;;
43861;SDS011;29510;52.140;5.034;2023-03-11T14:39:35;1.30;;;0.25;;
43861;SDS011;29510;52.140;5.034;2023-03-11T14:49:37;0.50;;;0.30;;
43861;SDS011;29510;52.140;5.034;2023-03-11T14:59:38;3.03;;;0.60;;
43861;SDS011;29510;52.140;5.034;2023-03-11T15:09:41;0.52;;;0.15;;
43861;SDS011;29510;52.140;5.034;2023-03-11T15:19:42;0.50;;;0.30;;
43861;SDS011;29510;52.140;5.034;2023-03-11T15:29:48;1.00;;;0.40;;
43861;SDS011;29510;52.140;5.034;2023-03-11T15:39:57;1.08;;;0.20;;
43861;SDS011;29510;52.140;5.034;2023-03-11T15:50:22;3.28;;;0.30;;
43861;SDS011;29510;52.140;5.034;2023-03-11T16:00:27;0.27;;;0.10;;
43861;SDS011;29510;52.140;5.034;2023-03-11T16:10:28;0.40;;;0.20;;
43861;SDS011;29510;52.140;5.034;2023-03-11T16:20:39;1.05;;;0.65;;
43861;SDS011;29510;52.140;5.034;2023-03-11T16:30:43;0.22;;;0.13;;
43861;SDS011;29510;52.140;5.034;2023-03-11T16:40:44;0.82;;;0.30;;
43861;SDS011;29510;52.140;5.034;2023-03-11T16:50:54;0.95;;;0.20;;
43861;SDS011;29510;52.140;5.034;2023-03-11T17:00:55;1.45;;;0.47;;
43861;SDS011;29510;52.140;5.034;2023-03-11T17:10:56;1.20;;;0.20;;
43861;SDS011;29510;52.140;5.034;2023-03-11T17:20:57;0.93;;;0.30;;
43861;SDS011;29510;52.140;5.034;2023-03-11T17:31:00;0.70;;;0.28;;
43861;SDS011;29510;52.140;5.034;2023-03-11T17:41:05;1.40;;;0.70;;
43861;SDS011;29510;52.140;5.034;2023-03-11T17:51:12;3.60;;;1.58;;
43861;SDS011;29510;52.140;5.034;2023-03-11T18:01:19;4.00;;;0.95;;
43861;SDS011;29510;52.140;5.034;2023-03-11T18:11:22;1.50;;;0.63;;
43861;SDS011;29510;52.140;5.034;2023-03-11T18:21:26;2.15;;;1.27;;
43861;SDS011;29510;52.140;5.034;2023-03-11T18:31:28;4.90;;;2.15;;
43861;SDS011;29510;52.140;5.034;2023-03-11T18:41:31;3.20;;;1.40;;
43861;SDS011;29510;52.140;5.034;2023-03-11T18:51:33;3.25;;;1.77;;
43861;SDS011;29510;52.140;5.034;2023-03-11T19:01:34;3.33;;;0.95;;
43861;SDS011;29510;52.140;5.034;2023-03-11T19:11:36;4.88;;;1.13;;
43861;SDS011;29510;52.140;5.034;2023-03-11T19:21:38;4.05;;;1.75;;
43861;SDS011;29510;52.140;5.034;2023-03-11T19:31:39;2.85;;;1.65;;
43861;SDS011;29510;52.140;5.034;2023-03-11T19:41:42;4.90;;;1.63;;
43861;SDS011;29510;52.140;5.034;2023-03-11T19:51:43;7.55;;;2.75;;
43861;SDS011;29510;52.140;5.034;2023-03-11T20:01:44;4.45;;;2.53;;
43861;SDS011;29510;52.140;5.034;2023-03-11T20:11:46;5.70;;;2.13;;
43861;SDS011;29510;52.140;5.034;2023-03-11T20:21:47;12.05;;;4.05;;
43861;SDS011;29510;52.140;5.034;2023-03-11T20:31:48;6.93;;;4.68;;
43861;SDS011;29510;52.140;5.034;2023-03-11T20:41:50;6.90;;;3.28;;
43861;SDS011;29510;52.140;5.034;2023-03-11T20:51:51;6.15;;;3.50;;
43861;SDS011;29510;52.140;5.034;2023-03-11T21:01:52;4.97;;;3.15;;
43861;SDS011;29510;52.140;5.034;2023-03-11T21:11:53;6.00;;;3.28;;
43861;SDS011;29510;52.140;5.034;2023-03-11T21:21:54;10.77;;;3.38;;
43861;SDS011;29510;52.140;5.034;2023-03-11T21:31:55;11.15;;;5.43;;
43861;SDS011;29510;52.140;5.034;2023-03-11T21:41:56;9.40;;;4.75;;
43861;SDS011;29510;52.140;5.034;2023-03-11T21:51:57;10.60;;;4.95;;
43861;SDS011;29510;52.140;5.034;2023-03-11T22:01:58;7.88;;;4.22;;
43861;SDS011;29510;52.140;5.034;2023-03-11T22:12:02;6.20;;;3.40;;
43861;SDS011;29510;52.140;5.034;2023-03-11T22:22:03;16.17;;;4.57;;
43861;SDS011;29510;52.140;5.034;2023-03-11T22:32:04;6.35;;;3.83;;
43861;SDS011;29510;52.140;5.034;2023-03-11T22:42:06;9.27;;;5.20;;
43861;SDS011;29510;52.140;5.034;2023-03-11T22:52:07;5.15;;;3.80;;
43861;SDS011;29510;52.140;5.034;2023-03-11T23:02:08;5.35;;;3.65;;
43861;SDS011;29510;52.140;5.034;2023-03-11T23:12:09;7.13;;;3.13;;
43861;SDS011;29510;52.140;5.034;2023-03-11T23:22:10;4.07;;;2.03;;
43861;SDS011;29510;52.140;5.034;2023-03-11T23:32:11;5.60;;;2.47;;
43861;SDS011;29510;52.140;5.034;2023-03-11T23:42:12;3.97;;;2.53;;
43861;SDS011;29510;52.140;5.034;2023-03-11T23:52:13;6.18;;;1.83;;
